sensor_id;sensor_type;location;lat;lon;timestamp;P1;durP1;ratioP1;P2;durP2;ratioP2
80384;SDS011;69702;44.618;33.604;2023-07-08T00:00:08;17.30;;;14.38;;
80384;SDS011;69702;44.618;33.604;2023-07-08T00:02:36;18.05;;;14.57;;
80384;SDS011;69702;44.618;33.604;2023-07-08T00:05:02;18.50;;;14.90;;
80384;SDS011;69702;44.618;33.604;2023-07-08T00:07:29;23.35;;;14.48;;
80384;SDS011;69702;44.618;33.604;2023-07-08T00:09:55;21.10;;;15.48;;
80384;SDS011;69702;44.618;33.604;2023-07-08T00:12:21;20.35;;;15.50;;
80384;SDS011;69702;44.618;33.604;2023-07-08T00:14:47;18.77;;;14.70;;
80384;SDS011;69702;44.618;33.604;2023-07-08T00:17:13;19.58;;;15.13;;
80384;SDS011;69702;44.618;33.604;2023-07-08T00:19:39;22.25;;;16.02;;
80384;SDS011;69702;44.618;33.604;2023-07-08T00:22:10;19.20;;;15.05;;
80384;SDS011;69702;44.618;33.604;2023-07-08T00:24:38;18.98;;;14.77;;
80384;SDS011;69702;44.618;33.604;2023-07-08T00:27:07;19.70;;;15.20;;
80384;SDS011;69702;44.618;33.604;2023-07-08T00:29:34;19.80;;;15.25;;
80384;SDS011;69702;44.618;33.604;2023-07-08T00:32:00;19.30;;;15.25;;
80384;SDS011;69702;44.618;33.604;2023-07-08T00:34:26;19.23;;;14.87;;
80384;SDS011;69702;44.618;33.604;2023-07-08T00:36:52;20.80;;;16.10;;
80384;SDS011;69702;44.618;33.604;2023-07-08T00:39:18;19.10;;;16.52;;
80384;SDS011;69702;44.618;33.604;2023-07-08T00:41:44;20.45;;;15.98;;
80384;SDS011;69702;44.618;33.604;2023-07-08T00:44:11;19.80;;;16.00;;
80384;SDS011;69702;44.618;33.604;2023-07-08T00:46:42;20.05;;;16.33;;
80384;SDS011;69702;44.618;33.604;2023-07-08T00:49:28;19.58;;;15.70;;
80384;SDS011;69702;44.618;33.604;2023-07-08T00:52:16;21.83;;;16.50;;
80384;SDS011;69702;44.618;33.604;2023-07-08T00:55:05;20.10;;;15.98;;
80384;SDS011;69702;44.618;33.604;2023-07-08T00:57:34;22.90;;;16.63;;
80384;SDS011;69702;44.618;33.604;2023-07-08T01:00:06;21.23;;;16.75;;
80384;SDS011;69702;44.618;33.604;2023-07-08T01:02:36;23.33;;;16.83;;
80384;SDS011;69702;44.618;33.604;2023-07-08T01:05:05;23.33;;;17.23;;
80384;SDS011;69702;44.618;33.604;2023-07-08T01:07:38;21.58;;;16.83;;
80384;SDS011;69702;44.618;33.604;2023-07-08T01:10:08;22.40;;;16.50;;
80384;SDS011;69702;44.618;33.604;2023-07-08T01:12:43;22.25;;;17.17;;
80384;SDS011;69702;44.618;33.604;2023-07-08T01:15:13;20.55;;;16.02;;
80384;SDS011;69702;44.618;33.604;2023-07-08T01:17:41;21.85;;;16.38;;
80384;SDS011;69702;44.618;33.604;2023-07-08T01:20:08;21.75;;;16.25;;
80384;SDS011;69702;44.618;33.604;2023-07-08T01:22:41;23.10;;;16.30;;
80384;SDS011;69702;44.618;33.604;2023-07-08T01:25:08;22.30;;;16.27;;
80384;SDS011;69702;44.618;33.604;2023-07-08T01:27:36;20.15;;;15.88;;
80384;SDS011;69702;44.618;33.604;2023-07-08T01:30:04;19.98;;;16.50;;
80384;SDS011;69702;44.618;33.604;2023-07-08T01:32:33;20.75;;;16.27;;
80384;SDS011;69702;44.618;33.604;2023-07-08T01:35:01;21.87;;;16.03;;
80384;SDS011;69702;44.618;33.604;2023-07-08T01:38:14;21.33;;;17.02;;
80384;SDS011;69702;44.618;33.604;2023-07-08T01:42:53;21.83;;;15.98;;
80384;SDS011;69702;44.618;33.604;2023-07-08T01:45:20;20.65;;;16.05;;
80384;SDS011;69702;44.618;33.604;2023-07-08T01:47:52;22.83;;;15.77;;
80384;SDS011;69702;44.618;33.604;2023-07-08T01:50:21;18.52;;;14.82;;
80384;SDS011;69702;44.618;33.604;2023-07-08T01:52:51;19.35;;;15.52;;
80384;SDS011;69702;44.618;33.604;2023-07-08T01:55:23;17.85;;;14.02;;
80384;SDS011;69702;44.618;33.604;2023-07-08T01:57:53;22.45;;;14.90;;
80384;SDS011;69702;44.618;33.604;2023-07-08T02:00:19;21.00;;;13.87;;
80384;SDS011;69702;44.618;33.604;2023-07-08T02:02:46;20.80;;;13.80;;
80384;SDS011;69702;44.618;33.604;2023-07-08T02:05:12;17.13;;;14.20;;
80384;SDS011;69702;44.618;33.604;2023-07-08T02:07:40;19.33;;;14.73;;
80384;SDS011;69702;44.618;33.604;2023-07-08T02:10:07;18.35;;;15.35;;
80384;SDS011;69702;44.618;33.604;2023-07-08T02:12:34;20.50;;;14.63;;
80384;SDS011;69702;44.618;33.604;2023-07-08T02:15:01;21.42;;;15.20;;
80384;SDS011;69702;44.618;33.604;2023-07-08T02:17:33;22.00;;;15.27;;
80384;SDS011;69702;44.618;33.604;2023-07-08T02:20:18;18.70;;;15.40;;
80384;SDS011;69702;44.618;33.604;2023-07-08T02:22:44;19.17;;;15.07;;
80384;SDS011;69702;44.618;33.604;2023-07-08T02:25:10;21.00;;;15.45;;
80384;SDS011;69702;44.618;33.604;2023-07-08T02:27:37;21.52;;;15.38;;
80384;SDS011;69702;44.618;33.604;2023-07-08T02:30:03;17.88;;;14.18;;
80384;SDS011;69702;44.618;33.604;2023-07-08T02:32:33;18.83;;;14.55;;
80384;SDS011;69702;44.618;33.604;2023-07-08T02:35:06;20.03;;;15.30;;
80384;SDS011;69702;44.618;33.604;2023-07-08T02:37:34;21.05;;;15.20;;
80384;SDS011;69702;44.618;33.604;2023-07-08T02:40:00;21.05;;;15.02;;
80384;SDS011;69702;44.618;33.604;2023-07-08T02:42:28;19.42;;;15.20;;
80384;SDS011;69702;44.618;33.604;2023-07-08T02:44:53;18.23;;;13.67;;
80384;SDS011;69702;44.618;33.604;2023-07-08T02:47:20;19.67;;;14.17;;
80384;SDS011;69702;44.618;33.604;2023-07-08T02:49:46;20.40;;;13.95;;
80384;SDS011;69702;44.618;33.604;2023-07-08T02:52:12;18.52;;;13.70;;
80384;SDS011;69702;44.618;33.604;2023-07-08T02:54:38;18.23;;;13.98;;
80384;SDS011;69702;44.618;33.604;2023-07-08T02:57:04;20.77;;;14.50;;
80384;SDS011;69702;44.618;33.604;2023-07-08T02:59:30;18.77;;;14.70;;
80384;SDS011;69702;44.618;33.604;2023-07-08T03:01:56;22.40;;;15.05;;
80384;SDS011;69702;44.618;33.604;2023-07-08T03:04:22;22.30;;;15.47;;
80384;SDS011;69702;44.618;33.604;2023-07-08T03:06:51;18.38;;;13.85;;
80384;SDS011;69702;44.618;33.604;2023-07-08T03:09:17;21.92;;;15.77;;
80384;SDS011;69702;44.618;33.604;2023-07-08T03:11:43;20.33;;;15.48;;
80384;SDS011;69702;44.618;33.604;2023-07-08T03:14:09;23.80;;;16.40;;
80384;SDS011;69702;44.618;33.604;2023-07-08T03:16:36;26.23;;;17.17;;
80384;SDS011;69702;44.618;33.604;2023-07-08T03:19:02;24.02;;;17.40;;
80384;SDS011;69702;44.618;33.604;2023-07-08T03:21:30;20.83;;;15.77;;
80384;SDS011;69702;44.618;33.604;2023-07-08T03:23:56;21.15;;;15.98;;
80384;SDS011;69702;44.618;33.604;2023-07-08T03:26:23;21.33;;;16.27;;
80384;SDS011;69702;44.618;33.604;2023-07-08T03:28:50;22.63;;;14.97;;
80384;SDS011;69702;44.618;33.604;2023-07-08T03:31:19;20.65;;;15.50;;
80384;SDS011;69702;44.618;33.604;2023-07-08T03:33:45;21.48;;;16.40;;
80384;SDS011;69702;44.618;33.604;2023-07-08T03:36:15;24.38;;;15.50;;
80384;SDS011;69702;44.618;33.604;2023-07-08T03:38:51;20.80;;;14.77;;
80384;SDS011;69702;44.618;33.604;2023-07-08T03:41:18;20.48;;;15.40;;
80384;SDS011;69702;44.618;33.604;2023-07-08T03:43:45;20.45;;;16.08;;
80384;SDS011;69702;44.618;33.604;2023-07-08T03:46:15;21.60;;;14.95;;
80384;SDS011;69702;44.618;33.604;2023-07-08T03:48:41;19.75;;;15.25;;
80384;SDS011;69702;44.618;33.604;2023-07-08T03:51:09;20.17;;;14.50;;
80384;SDS011;69702;44.618;33.604;2023-07-08T03:53:35;21.30;;;15.38;;
80384;SDS011;69702;44.618;33.604;2023-07-08T03:56:02;23.65;;;15.30;;
80384;SDS011;69702;44.618;33.604;2023-07-08T03:58:29;20.55;;;14.82;;
80384;SDS011;69702;44.618;33.604;2023-07-08T04:00:55;22.50;;;14.60;;
80384;SDS011;69702;44.618;33.604;2023-07-08T04:03:21;19.67;;;14.07;;
80384;SDS011;69702;44.618;33.604;2023-07-08T04:05:48;21.88;;;14.52;;
80384;SDS011;69702;44.618;33.604;2023-07-08T04:08:14;19.85;;;13.40;;
80384;SDS011;69702;44.618;33.604;2023-07-08T04:10:40;20.60;;;14.33;;
80384;SDS011;69702;44.618;33.604;2023-07-08T04:13:06;20.30;;;13.73;;
80384;SDS011;69702;44.618;33.604;2023-07-08T04:15:32;21.65;;;14.70;;
80384;SDS011;69702;44.618;33.604;2023-07-08T04:17:58;23.23;;;15.10;;
80384;SDS011;69702;44.618;33.604;2023-07-08T04:20:24;17.33;;;14.07;;
80384;SDS011;69702;44.618;33.604;2023-07-08T04:22:49;17.85;;;13.77;;
80384;SDS011;69702;44.618;33.604;2023-07-08T04:25:17;19.30;;;12.90;;
80384;SDS011;69702;44.618;33.604;2023-07-08T04:27:44;17.33;;;13.02;;
80384;SDS011;69702;44.618;33.604;2023-07-08T04:30:14;24.50;;;15.17;;
80384;SDS011;69702;44.618;33.604;2023-07-08T04:32:49;18.00;;;13.05;;
80384;SDS011;69702;44.618;33.604;2023-07-08T04:35:15;17.50;;;12.73;;
80384;SDS011;69702;44.618;33.604;2023-07-08T04:37:41;19.98;;;13.82;;
80384;SDS011;69702;44.618;33.604;2023-07-08T04:40:13;17.80;;;12.90;;
80384;SDS011;69702;44.618;33.604;2023-07-08T04:42:44;22.92;;;12.73;;
80384;SDS011;69702;44.618;33.604;2023-07-08T04:45:14;28.70;;;17.67;;
80384;SDS011;69702;44.618;33.604;2023-07-08T04:47:41;18.83;;;13.68;;
80384;SDS011;69702;44.618;33.604;2023-07-08T04:50:07;16.47;;;11.90;;
80384;SDS011;69702;44.618;33.604;2023-07-08T04:52:35;19.25;;;12.30;;
80384;SDS011;69702;44.618;33.604;2023-07-08T04:55:01;19.55;;;13.90;;
80384;SDS011;69702;44.618;33.604;2023-07-08T04:57:29;22.65;;;15.73;;
80384;SDS011;69702;44.618;33.604;2023-07-08T04:59:55;17.13;;;11.37;;
80384;SDS011;69702;44.618;33.604;2023-07-08T05:02:21;18.08;;;11.02;;
80384;SDS011;69702;44.618;33.604;2023-07-08T05:04:47;15.85;;;11.10;;
80384;SDS011;69702;44.618;33.604;2023-07-08T05:07:13;18.73;;;10.60;;
80384;SDS011;69702;44.618;33.604;2023-07-08T05:09:39;18.13;;;12.73;;
80384;SDS011;69702;44.618;33.604;2023-07-08T05:12:05;16.05;;;10.05;;
80384;SDS011;69702;44.618;33.604;2023-07-08T05:14:31;13.43;;;9.90;;
80384;SDS011;69702;44.618;33.604;2023-07-08T05:16:57;12.87;;;8.60;;
80384;SDS011;69702;44.618;33.604;2023-07-08T05:19:23;13.77;;;9.15;;
80384;SDS011;69702;44.618;33.604;2023-07-08T05:21:49;13.43;;;9.07;;
80384;SDS011;69702;44.618;33.604;2023-07-08T05:24:15;13.18;;;9.32;;
80384;SDS011;69702;44.618;33.604;2023-07-08T05:26:42;10.90;;;8.30;;
80384;SDS011;69702;44.618;33.604;2023-07-08T05:29:08;14.23;;;7.80;;
80384;SDS011;69702;44.618;33.604;2023-07-08T05:31:34;11.00;;;8.15;;
80384;SDS011;69702;44.618;33.604;2023-07-08T05:34:00;15.55;;;7.88;;
80384;SDS011;69702;44.618;33.604;2023-07-08T05:36:26;19.08;;;11.05;;
80384;SDS011;69702;44.618;33.604;2023-07-08T05:38:52;13.03;;;7.93;;
80384;SDS011;69702;44.618;33.604;2023-07-08T05:41:17;13.07;;;7.88;;
80384;SDS011;69702;44.618;33.604;2023-07-08T05:43:43;11.50;;;7.60;;
80384;SDS011;69702;44.618;33.604;2023-07-08T05:46:09;11.90;;;7.77;;
80384;SDS011;69702;44.618;33.604;2023-07-08T05:48:35;12.65;;;8.18;;
80384;SDS011;69702;44.618;33.604;2023-07-08T05:51:02;13.23;;;8.60;;
80384;SDS011;69702;44.618;33.604;2023-07-08T05:53:28;12.97;;;8.00;;
80384;SDS011;69702;44.618;33.604;2023-07-08T05:55:55;12.38;;;7.85;;
80384;SDS011;69702;44.618;33.604;2023-07-08T05:58:21;13.55;;;8.57;;
80384;SDS011;69702;44.618;33.604;2023-07-08T06:00:47;12.50;;;8.43;;
80384;SDS011;69702;44.618;33.604;2023-07-08T06:03:13;12.07;;;8.20;;
80384;SDS011;69702;44.618;33.604;2023-07-08T06:05:39;15.38;;;9.25;;
80384;SDS011;69702;44.618;33.604;2023-07-08T06:08:05;13.57;;;9.02;;
80384;SDS011;69702;44.618;33.604;2023-07-08T06:10:33;12.63;;;9.23;;
80384;SDS011;69702;44.618;33.604;2023-07-08T06:12:59;15.35;;;11.35;;
80384;SDS011;69702;44.618;33.604;2023-07-08T06:15:25;14.00;;;10.73;;
80384;SDS011;69702;44.618;33.604;2023-07-08T06:17:51;22.15;;;12.55;;
80384;SDS011;69702;44.618;33.604;2023-07-08T06:20:17;18.60;;;12.98;;
80384;SDS011;69702;44.618;33.604;2023-07-08T06:22:43;19.83;;;15.20;;
80384;SDS011;69702;44.618;33.604;2023-07-08T06:25:09;23.60;;;16.43;;
80384;SDS011;69702;44.618;33.604;2023-07-08T06:27:35;22.08;;;17.13;;
80384;SDS011;69702;44.618;33.604;2023-07-08T06:30:01;24.80;;;17.25;;
80384;SDS011;69702;44.618;33.604;2023-07-08T06:32:28;23.07;;;16.57;;
80384;SDS011;69702;44.618;33.604;2023-07-08T06:34:53;22.92;;;16.95;;
80384;SDS011;69702;44.618;33.604;2023-07-08T06:37:19;22.13;;;17.38;;
80384;SDS011;69702;44.618;33.604;2023-07-08T06:39:45;22.73;;;18.23;;
80384;SDS011;69702;44.618;33.604;2023-07-08T06:42:11;23.52;;;16.58;;
80384;SDS011;69702;44.618;33.604;2023-07-08T06:44:43;22.95;;;17.95;;
80384;SDS011;69702;44.618;33.604;2023-07-08T06:47:18;25.23;;;18.80;;
80384;SDS011;69702;44.618;33.604;2023-07-08T06:49:48;22.92;;;18.42;;
80384;SDS011;69702;44.618;33.604;2023-07-08T06:52:14;22.13;;;18.30;;
80384;SDS011;69702;44.618;33.604;2023-07-08T06:54:40;27.52;;;19.20;;
80384;SDS011;69702;44.618;33.604;2023-07-08T06:57:06;27.05;;;21.55;;
80384;SDS011;69702;44.618;33.604;2023-07-08T06:59:32;24.35;;;19.90;;
80384;SDS011;69702;44.618;33.604;2023-07-08T07:01:59;32.17;;;23.65;;
80384;SDS011;69702;44.618;33.604;2023-07-08T07:04:25;25.10;;;19.10;;
80384;SDS011;69702;44.618;33.604;2023-07-08T07:06:51;26.02;;;19.33;;
80384;SDS011;69702;44.618;33.604;2023-07-08T07:09:17;24.38;;;19.15;;
80384;SDS011;69702;44.618;33.604;2023-07-08T07:11:43;25.30;;;20.27;;
80384;SDS011;69702;44.618;33.604;2023-07-08T07:14:09;25.20;;;18.02;;
80384;SDS011;69702;44.618;33.604;2023-07-08T07:16:35;23.75;;;17.67;;
80384;SDS011;69702;44.618;33.604;2023-07-08T07:19:01;21.40;;;16.73;;
80384;SDS011;69702;44.618;33.604;2023-07-08T07:21:27;21.53;;;16.43;;
80384;SDS011;69702;44.618;33.604;2023-07-08T07:23:53;19.20;;;16.50;;
80384;SDS011;69702;44.618;33.604;2023-07-08T07:26:19;19.35;;;15.65;;
80384;SDS011;69702;44.618;33.604;2023-07-08T07:28:45;20.63;;;17.05;;
80384;SDS011;69702;44.618;33.604;2023-07-08T07:31:11;18.97;;;15.30;;
80384;SDS011;69702;44.618;33.604;2023-07-08T07:33:37;21.30;;;15.13;;
80384;SDS011;69702;44.618;33.604;2023-07-08T07:36:03;16.73;;;13.63;;
80384;SDS011;69702;44.618;33.604;2023-07-08T07:38:29;18.35;;;14.30;;
80384;SDS011;69702;44.618;33.604;2023-07-08T07:40:57;18.13;;;13.70;;
80384;SDS011;69702;44.618;33.604;2023-07-08T07:43:25;14.95;;;12.77;;
80384;SDS011;69702;44.618;33.604;2023-07-08T07:45:52;17.38;;;13.30;;
80384;SDS011;69702;44.618;33.604;2023-07-08T07:48:19;14.57;;;11.98;;
80384;SDS011;69702;44.618;33.604;2023-07-08T07:50:46;15.52;;;12.00;;
80384;SDS011;69702;44.618;33.604;2023-07-08T07:53:13;17.63;;;12.40;;
80384;SDS011;69702;44.618;33.604;2023-07-08T07:55:39;18.67;;;13.00;;
80384;SDS011;69702;44.618;33.604;2023-07-08T07:58:05;18.60;;;14.00;;
80384;SDS011;69702;44.618;33.604;2023-07-08T08:00:31;15.15;;;11.63;;
80384;SDS011;69702;44.618;33.604;2023-07-08T08:02:57;15.93;;;13.65;;
80384;SDS011;69702;44.618;33.604;2023-07-08T08:05:23;15.87;;;13.30;;
80384;SDS011;69702;44.618;33.604;2023-07-08T08:07:49;17.13;;;13.02;;
80384;SDS011;69702;44.618;33.604;2023-07-08T08:10:15;17.25;;;13.75;;
80384;SDS011;69702;44.618;33.604;2023-07-08T08:12:41;18.27;;;13.90;;
80384;SDS011;69702;44.618;33.604;2023-07-08T08:15:07;20.02;;;15.65;;
80384;SDS011;69702;44.618;33.604;2023-07-08T08:17:33;20.10;;;15.82;;
80384;SDS011;69702;44.618;33.604;2023-07-08T08:19:59;20.05;;;14.60;;
80384;SDS011;69702;44.618;33.604;2023-07-08T08:22:25;21.70;;;16.33;;
80384;SDS011;69702;44.618;33.604;2023-07-08T08:24:51;22.58;;;16.02;;
80384;SDS011;69702;44.618;33.604;2023-07-08T08:27:17;19.10;;;15.57;;
80384;SDS011;69702;44.618;33.604;2023-07-08T08:29:43;19.55;;;16.15;;
80384;SDS011;69702;44.618;33.604;2023-07-08T08:32:09;24.37;;;20.10;;
80384;SDS011;69702;44.618;33.604;2023-07-08T08:34:36;20.30;;;17.50;;
80384;SDS011;69702;44.618;33.604;2023-07-08T08:37:01;27.38;;;24.25;;
80384;SDS011;69702;44.618;33.604;2023-07-08T08:39:28;19.35;;;16.48;;
80384;SDS011;69702;44.618;33.604;2023-07-08T08:41:55;17.63;;;15.73;;
80384;SDS011;69702;44.618;33.604;2023-07-08T08:44:26;19.65;;;15.82;;
80384;SDS011;69702;44.618;33.604;2023-07-08T08:47:16;20.92;;;17.23;;
80384;SDS011;69702;44.618;33.604;2023-07-08T08:49:50;20.02;;;14.05;;
80384;SDS011;69702;44.618;33.604;2023-07-08T08:52:30;16.08;;;13.20;;
80384;SDS011;69702;44.618;33.604;2023-07-08T08:54:56;19.38;;;13.25;;
80384;SDS011;69702;44.618;33.604;2023-07-08T09:04:11;17.15;;;13.02;;
80384;SDS011;69702;44.618;33.604;2023-07-08T09:06:34;13.25;;;11.85;;
80384;SDS011;69702;44.618;33.604;2023-07-08T09:09:05;13.03;;;10.67;;
80384;SDS011;69702;44.618;33.604;2023-07-08T09:11:44;14.55;;;10.88;;
80384;SDS011;69702;44.618;33.604;2023-07-08T09:14:23;11.50;;;9.60;;
80384;SDS011;69702;44.618;33.604;2023-07-08T09:19:41;12.68;;;9.15;;
80384;SDS011;69702;44.618;33.604;2023-07-08T09:25:05;12.55;;;9.40;;
80384;SDS011;69702;44.618;33.604;2023-07-08T09:27:46;18.52;;;10.00;;
80384;SDS011;69702;44.618;33.604;2023-07-08T09:30:13;11.13;;;7.95;;
80384;SDS011;69702;44.618;33.604;2023-07-08T09:32:46;13.55;;;8.80;;
80384;SDS011;69702;44.618;33.604;2023-07-08T09:35:27;9.77;;;7.67;;
80384;SDS011;69702;44.618;33.604;2023-07-08T09:37:54;11.15;;;7.70;;
80384;SDS011;69702;44.618;33.604;2023-07-08T09:40:22;15.45;;;9.52;;
80384;SDS011;69702;44.618;33.604;2023-07-08T09:42:55;9.68;;;6.97;;
80384;SDS011;69702;44.618;33.604;2023-07-08T09:45:29;12.75;;;8.45;;
80384;SDS011;69702;44.618;33.604;2023-07-08T09:48:18;16.73;;;7.10;;
80384;SDS011;69702;44.618;33.604;2023-07-08T09:50:50;13.98;;;8.25;;
80384;SDS011;69702;44.618;33.604;2023-07-08T09:53:17;11.52;;;7.70;;
80384;SDS011;69702;44.618;33.604;2023-07-08T09:55:44;13.85;;;7.65;;
80384;SDS011;69702;44.618;33.604;2023-07-08T09:58:18;11.85;;;8.40;;
80384;SDS011;69702;44.618;33.604;2023-07-08T10:00:53;15.23;;;8.50;;
80384;SDS011;69702;44.618;33.604;2023-07-08T10:03:21;11.38;;;8.35;;
80384;SDS011;69702;44.618;33.604;2023-07-08T10:05:49;11.38;;;7.90;;
80384;SDS011;69702;44.618;33.604;2023-07-08T10:08:16;13.68;;;7.50;;
80384;SDS011;69702;44.618;33.604;2023-07-08T10:10:45;12.50;;;8.18;;
80384;SDS011;69702;44.618;33.604;2023-07-08T10:13:20;12.90;;;8.37;;
80384;SDS011;69702;44.618;33.604;2023-07-08T10:15:51;14.25;;;9.05;;
80384;SDS011;69702;44.618;33.604;2023-07-08T10:18:22;13.43;;;9.32;;
80384;SDS011;69702;44.618;33.604;2023-07-08T10:21:11;13.48;;;8.63;;
80384;SDS011;69702;44.618;33.604;2023-07-08T10:26:54;11.83;;;8.40;;
80384;SDS011;69702;44.618;33.604;2023-07-08T10:29:40;16.75;;;9.27;;
80384;SDS011;69702;44.618;33.604;2023-07-08T10:37:46;17.05;;;11.45;;
80384;SDS011;69702;44.618;33.604;2023-07-08T10:43:33;13.65;;;10.18;;
80384;SDS011;69702;44.618;33.604;2023-07-08T10:46:21;14.15;;;9.55;;
80384;SDS011;69702;44.618;33.604;2023-07-08T10:49:16;12.60;;;10.07;;
80384;SDS011;69702;44.618;33.604;2023-07-08T11:05:55;14.83;;;12.77;;
80384;SDS011;69702;44.618;33.604;2023-07-08T11:08:26;14.65;;;11.48;;
80384;SDS011;69702;44.618;33.604;2023-07-08T11:19:37;13.80;;;11.00;;
80384;SDS011;69702;44.618;33.604;2023-07-08T11:22:09;15.90;;;12.35;;
80384;SDS011;69702;44.618;33.604;2023-07-08T11:24:47;15.20;;;11.93;;
80384;SDS011;69702;44.618;33.604;2023-07-08T11:29:56;15.57;;;10.77;;
80384;SDS011;69702;44.618;33.604;2023-07-08T11:32:36;15.70;;;13.27;;
80384;SDS011;69702;44.618;33.604;2023-07-08T11:35:04;16.70;;;12.38;;
80384;SDS011;69702;44.618;33.604;2023-07-08T11:37:31;14.98;;;12.32;;
80384;SDS011;69702;44.618;33.604;2023-07-08T11:42:43;16.15;;;12.60;;
80384;SDS011;69702;44.618;33.604;2023-07-08T11:47:46;19.55;;;14.00;;
80384;SDS011;69702;44.618;33.604;2023-07-08T11:55:57;19.30;;;15.23;;
80384;SDS011;69702;44.618;33.604;2023-07-08T11:58:25;16.80;;;12.23;;
80384;SDS011;69702;44.618;33.604;2023-07-08T12:01:00;20.00;;;15.27;;
80384;SDS011;69702;44.618;33.604;2023-07-08T12:08:53;21.87;;;15.37;;
80384;SDS011;69702;44.618;33.604;2023-07-08T12:11:24;17.25;;;13.90;;
80384;SDS011;69702;44.618;33.604;2023-07-08T12:13:53;15.93;;;13.30;;
80384;SDS011;69702;44.618;33.604;2023-07-08T12:16:20;17.98;;;13.75;;
80384;SDS011;69702;44.618;33.604;2023-07-08T12:18:47;19.13;;;12.77;;
80384;SDS011;69702;44.618;33.604;2023-07-08T12:21:14;18.37;;;11.90;;
80384;SDS011;69702;44.618;33.604;2023-07-08T12:23:46;17.58;;;12.38;;
80384;SDS011;69702;44.618;33.604;2023-07-08T12:26:13;15.05;;;11.45;;
80384;SDS011;69702;44.618;33.604;2023-07-08T12:28:40;18.33;;;14.05;;
80384;SDS011;69702;44.618;33.604;2023-07-08T12:31:16;20.67;;;14.90;;
80384;SDS011;69702;44.618;33.604;2023-07-08T12:33:44;18.23;;;12.33;;
80384;SDS011;69702;44.618;33.604;2023-07-08T12:36:13;15.07;;;9.60;;
80384;SDS011;69702;44.618;33.604;2023-07-08T12:38:45;14.57;;;10.43;;
80384;SDS011;69702;44.618;33.604;2023-07-08T12:41:17;15.15;;;9.10;;
80384;SDS011;69702;44.618;33.604;2023-07-08T12:43:45;11.70;;;9.82;;
80384;SDS011;69702;44.618;33.604;2023-07-08T12:46:11;12.80;;;9.40;;
80384;SDS011;69702;44.618;33.604;2023-07-08T12:48:38;12.00;;;8.52;;
80384;SDS011;69702;44.618;33.604;2023-07-08T12:51:09;12.70;;;10.27;;
80384;SDS011;69702;44.618;33.604;2023-07-08T12:53:37;16.45;;;9.70;;
80384;SDS011;69702;44.618;33.604;2023-07-08T12:56:03;11.75;;;8.43;;
80384;SDS011;69702;44.618;33.604;2023-07-08T12:58:31;11.17;;;8.13;;
80384;SDS011;69702;44.618;33.604;2023-07-08T13:01:01;17.55;;;10.45;;
80384;SDS011;69702;44.618;33.604;2023-07-08T13:03:29;13.32;;;8.68;;
80384;SDS011;69702;44.618;33.604;2023-07-08T13:05:57;13.65;;;8.63;;
80384;SDS011;69702;44.618;33.604;2023-07-08T13:08:24;20.05;;;12.55;;
80384;SDS011;69702;44.618;33.604;2023-07-08T13:10:52;13.20;;;9.53;;
80384;SDS011;69702;44.618;33.604;2023-07-08T13:13:22;14.73;;;9.73;;
80384;SDS011;69702;44.618;33.604;2023-07-08T13:15:50;14.68;;;10.55;;
80384;SDS011;69702;44.618;33.604;2023-07-08T13:18:20;17.10;;;11.20;;
80384;SDS011;69702;44.618;33.604;2023-07-08T13:20:51;14.65;;;9.00;;
80384;SDS011;69702;44.618;33.604;2023-07-08T13:23:18;13.13;;;9.50;;
80384;SDS011;69702;44.618;33.604;2023-07-08T13:25:46;13.30;;;9.43;;
80384;SDS011;69702;44.618;33.604;2023-07-08T13:28:15;16.55;;;10.52;;
80384;SDS011;69702;44.618;33.604;2023-07-08T13:30:52;22.17;;;14.48;;
80384;SDS011;69702;44.618;33.604;2023-07-08T13:33:29;16.23;;;9.95;;
80384;SDS011;69702;44.618;33.604;2023-07-08T13:35:56;13.70;;;8.93;;
80384;SDS011;69702;44.618;33.604;2023-07-08T13:38:24;17.95;;;11.82;;
80384;SDS011;69702;44.618;33.604;2023-07-08T13:40:55;16.58;;;11.10;;
80384;SDS011;69702;44.618;33.604;2023-07-08T13:43:31;17.45;;;9.90;;
80384;SDS011;69702;44.618;33.604;2023-07-08T13:45:58;16.73;;;10.48;;
80384;SDS011;69702;44.618;33.604;2023-07-08T13:51:16;14.35;;;9.98;;
80384;SDS011;69702;44.618;33.604;2023-07-08T13:56:15;16.13;;;9.70;;
80384;SDS011;69702;44.618;33.604;2023-07-08T13:58:50;14.13;;;8.90;;
80384;SDS011;69702;44.618;33.604;2023-07-08T14:01:18;13.33;;;9.13;;
80384;SDS011;69702;44.618;33.604;2023-07-08T14:03:46;14.70;;;9.02;;
80384;SDS011;69702;44.618;33.604;2023-07-08T14:06:16;15.48;;;10.55;;
80384;SDS011;69702;44.618;33.604;2023-07-08T14:08:43;14.85;;;10.43;;
80384;SDS011;69702;44.618;33.604;2023-07-08T14:11:10;17.30;;;12.02;;
80384;SDS011;69702;44.618;33.604;2023-07-08T14:13:36;16.83;;;12.40;;
80384;SDS011;69702;44.618;33.604;2023-07-08T14:16:02;15.63;;;11.35;;
80384;SDS011;69702;44.618;33.604;2023-07-08T14:18:31;18.00;;;12.18;;
80384;SDS011;69702;44.618;33.604;2023-07-08T14:20:58;18.90;;;13.02;;
80384;SDS011;69702;44.618;33.604;2023-07-08T14:23:24;20.77;;;12.75;;
80384;SDS011;69702;44.618;33.604;2023-07-08T14:25:50;16.50;;;12.73;;
80384;SDS011;69702;44.618;33.604;2023-07-08T14:28:16;23.15;;;13.70;;
80384;SDS011;69702;44.618;33.604;2023-07-08T14:30:44;19.60;;;13.82;;
80384;SDS011;69702;44.618;33.604;2023-07-08T14:33:11;15.48;;;11.70;;
80384;SDS011;69702;44.618;33.604;2023-07-08T14:35:38;16.98;;;11.57;;
80384;SDS011;69702;44.618;33.604;2023-07-08T14:38:08;17.17;;;10.80;;
80384;SDS011;69702;44.618;33.604;2023-07-08T14:40:36;20.17;;;11.07;;
80384;SDS011;69702;44.618;33.604;2023-07-08T14:43:03;15.27;;;11.55;;
80384;SDS011;69702;44.618;33.604;2023-07-08T14:45:42;16.92;;;10.90;;
80384;SDS011;69702;44.618;33.604;2023-07-08T14:48:12;15.27;;;10.45;;
80384;SDS011;69702;44.618;33.604;2023-07-08T14:50:38;15.07;;;9.80;;
80384;SDS011;69702;44.618;33.604;2023-07-08T14:53:05;13.25;;;9.30;;
80384;SDS011;69702;44.618;33.604;2023-07-08T14:55:31;14.88;;;9.90;;
80384;SDS011;69702;44.618;33.604;2023-07-08T14:57:58;15.13;;;11.30;;
80384;SDS011;69702;44.618;33.604;2023-07-08T15:00:24;17.00;;;9.57;;
80384;SDS011;69702;44.618;33.604;2023-07-08T15:02:51;11.37;;;8.37;;
80384;SDS011;69702;44.618;33.604;2023-07-08T15:05:19;12.23;;;8.20;;
80384;SDS011;69702;44.618;33.604;2023-07-08T15:07:52;12.15;;;7.70;;
80384;SDS011;69702;44.618;33.604;2023-07-08T15:10:20;11.98;;;7.28;;
80384;SDS011;69702;44.618;33.604;2023-07-08T15:12:48;12.38;;;7.60;;
80384;SDS011;69702;44.618;33.604;2023-07-08T15:15:22;13.83;;;8.30;;
80384;SDS011;69702;44.618;33.604;2023-07-08T15:17:52;11.73;;;7.78;;
80384;SDS011;69702;44.618;33.604;2023-07-08T15:20:19;13.98;;;8.65;;
80384;SDS011;69702;44.618;33.604;2023-07-08T15:22:47;15.10;;;8.20;;
80384;SDS011;69702;44.618;33.604;2023-07-08T15:25:13;11.93;;;7.57;;
80384;SDS011;69702;44.618;33.604;2023-07-08T15:27:44;13.10;;;7.60;;
80384;SDS011;69702;44.618;33.604;2023-07-08T15:30:17;13.95;;;7.88;;
80384;SDS011;69702;44.618;33.604;2023-07-08T15:32:45;14.02;;;8.60;;